HETCH HETCHY (HTH)

Elevation: 3870' · TUOLUMNE R basin · Operator: Hetch Hetchy Water and Power

Provisional data, subject to change.
Query executed Friday at 1:56:39   clock

Select a sensor type for a plot of data.
Note: Reservoir Flows are daily averages.

Earlier

Date RES ELE    STORAGE    RES CHG    OUTFLOW    INFLOW    PPT INC    RAIN    PPTINC4   
 FEET   AF   AF   CFS   CFS   INCHES   INCHES   INCHES  
03/26/2014 -- 185944 -- 446 -- 0.84 14.51 0.44
03/27/2014 -- 186248 -- 455 -- 0.30 14.81 0.62
03/28/2014 -- 186400 -- 492 -- 0.02 14.83 0.17
03/29/2014 -- 186552 -- 496 -- 0.00 14.83 0.00
03/30/2014 -- 186704 -- 504 -- 1.08 15.91 0.61
03/31/2014 -- 187160 -- 492 -- 0.10 16.01 0.02
04/01/2014 -- 187464 -- 493 -- 0.70 16.71 0.61
04/02/2014 -- 187768 -- 411 -- 0.35 17.06 0.52
04/03/2014 -- 188072 -- 385 -- 0.03 17.09 0.06
04/04/2014 -- 188224 -- 371 -- 0.00 17.09 0.00
04/05/2014 -- 188528 -- 367 -- 0.00 17.09 0.00
04/06/2014 -- 188984 -- 368 -- 0.00 17.09 0.00
04/07/2014 -- 189592 -- 392 -- 0.00 17.09 0.00
04/08/2014 -- 190674 -- 388 -- 0.00 17.09 0.00
04/09/2014 -- 192096 -- 386 -- 0.00 17.09 0.00
04/10/2014 -- 193834 -- 395 -- 0.00 17.09 0.00
04/11/2014 -- 195730 -- 376 -- 0.00 17.09 0.00
04/12/2014 -- 195952 -- 372 -- 0.00 17.09 0.00
04/13/2014 -- 200944 -- 381 -- 0.00 17.09 0.00
04/14/2014 -- 203788 -- 382 -- 0.00 17.09 0.00
04/15/2014 -- 206640 2852 387 -- 0.00 17.09 0.00
04/16/2014 -- 210005 3365 391 -- 0.00 17.09 0.00
04/17/2014 -- 212582 -- 429 -- 0.00 17.09 0.00
04/18/2014 -- 216638 -- 445 -- 0.00 17.09 0.00
04/19/2014 -- 221872 -- 449 -- 0.00 17.09 0.00
04/20/2014 -- 226823 -- 396 -- 0.00 17.09 0.00
04/21/2014 -- 231158 -- 37 -- 0.00 17.09 0.00
04/22/2014 -- 234512 -- 377 -- 0.23 17.32 0.00
04/23/2014 -- 237379 -- 392 -- 0.00 17.32 0.24
04/24/2014 -- -- -- -- -- 0.00 -- 0.00
04/25/2014 -- -- -- -- -- -- -- --

Later | Latest

Warning! This data is preliminary and subject to revision.

Download Data Now Download Data Now | Show HTH Map | Plot HTH Data | 1 Month HTH Data | Real-Time HTH Data | HTH Info